createdAt,value
2022-11-20T00:00:55.493Z,-2.12
2022-11-20T00:03:24.645Z,-2.10
2022-11-20T00:05:52.534Z,-2.11
2022-11-20T00:08:20.424Z,-2.07
2022-11-20T00:10:48.312Z,-2.05
2022-11-20T00:13:17.563Z,-1.95
2022-11-20T00:15:45.655Z,-1.97
2022-11-20T00:18:13.557Z,-1.91
2022-11-20T00:20:41.501Z,-1.94
2022-11-20T00:23:09.376Z,-1.96
2022-11-20T00:25:37.450Z,-1.99
2022-11-20T00:28:05.674Z,-1.86
2022-11-20T00:30:34.932Z,-1.97
2022-11-20T00:33:02.833Z,-2.00
2022-11-20T00:35:31.277Z,-1.96
2022-11-20T00:37:59.162Z,-1.78
2022-11-20T00:40:27.147Z,-1.71
2022-11-20T00:42:55.084Z,-1.90
2022-11-20T00:45:22.987Z,-1.77
2022-11-20T00:47:52.259Z,-1.86
2022-11-20T00:50:20.134Z,-1.87
2022-11-20T00:52:48.060Z,-1.89
2022-11-20T00:55:16.128Z,-1.87
2022-11-20T00:57:44.027Z,-1.87
2022-11-20T01:00:12.592Z,-1.79
2022-11-20T01:02:40.514Z,-1.73
2022-11-20T01:05:10.239Z,-1.78
2022-11-20T01:07:38.170Z,-1.88
2022-11-20T01:10:07.271Z,-1.88
2022-11-20T01:12:35.167Z,-1.92
2022-11-20T01:15:03.077Z,-1.91
2022-11-20T01:17:30.988Z,-1.83
2022-11-20T01:19:58.901Z,-1.72
2022-11-20T01:22:28.328Z,-1.68
2022-11-20T01:24:56.215Z,-1.92
2022-11-20T01:27:24.092Z,-1.90
2022-11-20T01:29:53.884Z,-1.92
2022-11-20T01:32:24.821Z,-1.81
2022-11-20T01:34:52.803Z,-1.84
2022-11-20T01:37:20.685Z,-1.81
2022-11-20T01:39:49.936Z,-1.77
2022-11-20T01:42:46.692Z,-1.87
2022-11-20T01:46:00.291Z,-1.68
2022-11-20T01:48:32.480Z,-1.79
2022-11-20T01:51:00.445Z,-1.79
2022-11-20T01:53:31.589Z,-1.67
2022-11-20T01:56:02.486Z,-1.57
2022-11-20T01:58:36.109Z,-1.55
2022-11-20T02:01:05.110Z,-1.50
2022-11-20T02:03:33.191Z,-1.13
2022-11-20T02:06:07.259Z,-0.95
2022-11-20T02:08:35.376Z,-0.89
2022-11-20T02:11:04.636Z,-0.96
2022-11-20T02:13:47.774Z,-0.94
2022-11-20T02:16:18.377Z,-0.82
2022-11-20T02:18:46.874Z,-0.84
2022-11-20T02:21:29.769Z,-0.84
2022-11-20T02:24:07.041Z,-0.86
2022-11-20T02:26:36.863Z,-0.75
2022-11-20T02:29:05.753Z,-1.14
2022-11-20T02:31:38.624Z,-1.30
2022-11-20T02:34:06.523Z,-1.26
2022-11-20T02:36:36.288Z,-1.11
2022-11-20T02:39:06.148Z,-1.36
2022-11-20T02:41:35.641Z,-1.50
2022-11-20T02:44:04.840Z,-1.55
2022-11-20T02:46:32.880Z,-1.62
2022-11-20T02:49:00.772Z,-1.60
2022-11-20T02:51:28.694Z,-1.58
2022-11-20T02:53:56.579Z,-1.59
2022-11-20T02:56:25.929Z,-1.68
2022-11-20T02:58:53.912Z,-1.74
2022-11-20T03:01:21.949Z,-1.69
2022-11-20T03:03:50.331Z,-1.67
2022-11-20T03:06:18.879Z,-1.60
2022-11-20T03:08:46.767Z,-1.64
2022-11-20T03:11:14.761Z,-1.65
2022-11-20T03:13:44.010Z,-1.60
2022-11-20T03:16:13.998Z,-1.64
2022-11-20T03:18:42.667Z,-1.60
2022-11-20T03:21:11.356Z,-1.59
2022-11-20T03:23:39.558Z,-1.58
2022-11-20T03:26:12.135Z,-1.59
2022-11-20T03:28:40.183Z,-1.60
2022-11-20T03:31:11.036Z,-1.61
2022-11-20T03:33:38.946Z,-1.56
2022-11-20T03:36:08.928Z,-1.53
2022-11-20T03:38:37.104Z,-1.60
2022-11-20T03:41:06.287Z,-1.45
2022-11-20T03:43:34.523Z,-1.36
2022-11-20T03:46:03.008Z,-1.24
2022-11-20T03:48:32.367Z,-1.42
2022-11-20T03:51:11.198Z,-1.44
2022-11-20T03:53:39.140Z,-1.43
2022-11-20T03:56:08.299Z,-1.43
2022-11-20T03:58:37.080Z,-1.20
2022-11-20T04:01:09.313Z,-1.39
2022-11-20T04:03:39.580Z,-1.45
2022-11-20T04:06:09.174Z,-1.43
2022-11-20T04:08:37.205Z,-1.34
2022-11-20T04:11:12.903Z,-1.41
2022-11-20T04:13:40.845Z,-1.43
2022-11-20T04:16:09.871Z,-1.28
2022-11-20T04:18:39.488Z,-1.34
2022-11-20T04:21:08.028Z,-1.38
2022-11-20T04:23:35.980Z,-1.21
2022-11-20T04:26:05.296Z,-1.17
2022-11-20T04:28:33.268Z,-1.35
2022-11-20T04:31:05.853Z,-1.31
2022-11-20T04:33:34.525Z,-1.26
2022-11-20T04:36:05.308Z,-1.30
2022-11-20T04:38:33.304Z,-1.31
2022-11-20T04:41:01.574Z,-1.30
2022-11-20T04:43:29.605Z,-1.06
2022-11-20T04:45:58.398Z,-0.89
2022-11-20T04:48:27.204Z,-0.96
2022-11-20T04:50:55.584Z,-0.79
2022-11-20T04:53:25.312Z,-0.67
2022-11-20T04:55:53.218Z,-0.73
2022-11-20T04:58:21.132Z,-0.51
2022-11-20T05:00:49.001Z,-0.43
2022-11-20T05:03:16.873Z,-0.42
2022-11-20T05:05:44.744Z,-0.44
2022-11-20T05:08:12.700Z,-0.51
2022-11-20T05:10:41.956Z,-0.66
2022-11-20T05:13:09.861Z,-0.75
2022-11-20T05:15:37.801Z,-0.85
2022-11-20T05:18:05.975Z,-0.82
2022-11-20T05:20:33.868Z,-0.71
2022-11-20T05:23:01.773Z,-0.91
2022-11-20T05:25:29.678Z,-0.85
2022-11-20T05:27:58.944Z,-0.72
2022-11-20T05:30:26.812Z,-0.84
2022-11-20T05:32:54.714Z,-0.98
2022-11-20T05:35:22.613Z,-0.92
2022-11-20T05:37:50.508Z,-1.01
2022-11-20T05:40:18.411Z,-1.03
2022-11-20T05:42:46.316Z,-1.02
2022-11-20T05:45:15.701Z,-0.99
2022-11-20T05:47:43.579Z,-1.10
2022-11-20T05:50:11.532Z,-1.19
2022-11-20T05:52:39.408Z,-1.21
2022-11-20T05:55:08.143Z,-1.19
2022-11-20T05:57:36.116Z,-1.15
2022-11-20T06:00:04.117Z,-1.21
2022-11-20T06:02:36.724Z,-1.14
2022-11-20T06:05:04.928Z,-1.19
2022-11-20T06:07:32.899Z,-1.20
2022-11-20T06:10:00.840Z,-1.20
2022-11-20T06:12:28.752Z,-1.18
2022-11-20T06:14:56.635Z,-1.14
2022-11-20T06:17:24.531Z,-1.14
2022-11-20T06:19:53.811Z,-1.08
2022-11-20T06:22:21.758Z,-1.12
2022-11-20T06:24:49.852Z,-1.06
2022-11-20T06:27:17.992Z,-1.09
2022-11-20T06:29:45.924Z,-1.03
2022-11-20T06:32:13.880Z,-1.00
2022-11-20T06:34:41.763Z,-0.95
2022-11-20T06:37:11.076Z,-1.02
2022-11-20T06:39:38.960Z,-1.00
2022-11-20T06:42:06.976Z,-0.98
2022-11-20T06:44:34.845Z,-1.04
2022-11-20T06:47:03.102Z,-0.99
2022-11-20T06:49:31.101Z,-0.98
2022-11-20T06:51:59.185Z,-1.03
2022-11-20T06:54:28.830Z,-1.05
2022-11-20T06:56:56.726Z,-1.02
2022-11-20T06:59:24.778Z,-1.06
2022-11-20T07:01:52.748Z,-1.04
2022-11-20T07:04:20.649Z,-0.97
2022-11-20T07:06:48.589Z,-0.94
2022-11-20T07:09:17.337Z,-0.97
2022-11-20T07:11:46.651Z,-0.94
2022-11-20T07:14:14.576Z,-0.91
2022-11-20T07:16:42.448Z,-0.97
2022-11-20T07:19:10.335Z,-0.97
2022-11-20T07:21:38.234Z,-1.06
2022-11-20T07:24:06.434Z,-1.03
2022-11-20T07:26:34.351Z,-0.78
2022-11-20T07:29:03.595Z,-0.81
2022-11-20T07:31:31.542Z,-0.69
2022-11-20T07:33:59.464Z,-0.68
2022-11-20T07:36:27.347Z,-0.64
2022-11-20T07:38:55.383Z,-0.60
2022-11-20T07:41:23.262Z,-0.52
2022-11-20T07:43:51.148Z,-0.24
2022-11-20T07:46:20.398Z,-0.15
2022-11-20T07:48:48.308Z,-0.07
2022-11-20T07:51:16.253Z,-0.05
2022-11-20T07:53:44.180Z,-0.05
2022-11-20T07:56:12.212Z,-0.08
2022-11-20T07:58:40.104Z,-0.22
2022-11-20T08:01:09.070Z,-0.28
2022-11-20T08:03:39.427Z,-0.31
2022-11-20T08:06:08.085Z,-0.31
2022-11-20T08:08:40.049Z,-0.21
2022-11-20T08:11:27.864Z,0.02
2022-11-20T08:14:13.685Z,0.08
2022-11-20T08:16:41.814Z,0.25
2022-11-20T08:19:11.080Z,0.31
2022-11-20T08:21:39.031Z,0.32
2022-11-20T08:24:08.014Z,0.31
2022-11-20T08:26:36.234Z,0.34
2022-11-20T08:29:04.664Z,0.34
2022-11-20T08:31:33.017Z,0.65
2022-11-20T08:34:02.946Z,0.50
2022-11-20T08:36:36.526Z,0.53
2022-11-20T08:39:05.170Z,0.44
2022-11-20T08:41:34.280Z,0.49
2022-11-20T08:44:03.541Z,0.50
2022-11-20T08:46:35.195Z,0.54
2022-11-20T08:49:03.444Z,0.45
2022-11-20T08:51:31.695Z,0.38
2022-11-20T08:54:01.036Z,0.07
2022-11-20T08:56:29.801Z,0.31
2022-11-20T09:01:45.572Z,0.58
2022-11-20T09:04:15.388Z,0.73
2022-11-20T09:06:43.459Z,0.85
2022-11-20T09:09:12.697Z,0.84
2022-11-20T09:11:40.570Z,0.73
2022-11-20T09:14:08.623Z,0.74
2022-11-20T09:16:36.948Z,0.91
2022-11-20T09:19:40.506Z,0.79
2022-11-20T09:21:58.265Z,1.04
2022-11-20T09:24:29.138Z,1.12
2022-11-20T09:26:57.393Z,1.13
2022-11-20T09:29:25.307Z,1.30
2022-11-20T09:31:53.191Z,1.14
2022-11-20T09:34:21.058Z,1.35
2022-11-20T09:36:48.952Z,1.62
2022-11-20T09:39:16.896Z,1.81
2022-11-20T09:42:16.762Z,1.94
2022-11-20T09:45:12.808Z,1.84
2022-11-20T09:47:51.335Z,2.39
2022-11-20T09:50:27.518Z,2.01
2022-11-20T09:53:06.278Z,1.62
2022-11-20T09:55:34.391Z,1.55
2022-11-20T09:58:04.296Z,1.71
2022-11-20T10:00:32.191Z,1.70
2022-11-20T10:03:03.387Z,1.88
2022-11-20T10:05:34.353Z,2.08
2022-11-20T10:08:11.005Z,2.25
2022-11-20T10:10:44.227Z,2.47
2022-11-20T10:13:29.900Z,2.64
2022-11-20T10:16:05.874Z,3.17
2022-11-20T10:18:46.429Z,3.39
2022-11-20T10:21:21.053Z,3.45
2022-11-20T10:24:18.663Z,3.41
2022-11-20T10:26:54.120Z,3.66
2022-11-20T10:29:28.238Z,4.02
2022-11-20T10:31:59.061Z,5.09
2022-11-20T10:34:30.083Z,5.52
2022-11-20T10:37:04.640Z,5.74
2022-11-20T10:39:37.398Z,5.63
2022-11-20T10:42:10.898Z,5.38
2022-11-20T10:45:07.189Z,5.48
2022-11-20T10:47:35.303Z,5.51
2022-11-20T10:50:05.761Z,5.50
2022-11-20T10:52:38.775Z,5.61
2022-11-20T10:55:14.043Z,5.78
2022-11-20T10:57:53.667Z,5.90
2022-11-20T11:00:23.297Z,6.11
2022-11-20T11:02:52.547Z,6.22
2022-11-20T11:05:28.208Z,6.06
2022-11-20T11:07:57.439Z,6.11
2022-11-20T11:10:27.066Z,5.92
2022-11-20T11:12:56.135Z,5.87
2022-11-20T11:15:30.880Z,5.78
2022-11-20T11:17:59.161Z,5.76
2022-11-20T11:20:27.928Z,6.05
2022-11-20T11:22:57.580Z,6.07
2022-11-20T11:25:30.886Z,6.05
2022-11-20T11:28:01.528Z,6.07
2022-11-20T11:30:32.995Z,6.20
2022-11-20T11:33:08.880Z,6.31
2022-11-20T11:35:49.933Z,6.45
2022-11-20T11:38:23.690Z,6.78
2022-11-20T11:40:51.720Z,6.74
2022-11-20T11:43:39.368Z,6.53
2022-11-20T11:46:25.702Z,6.19
2022-11-20T11:48:59.167Z,6.05
2022-11-20T11:51:30.209Z,5.98
2022-11-20T11:53:59.046Z,6.16
2022-11-20T11:56:27.138Z,6.12
2022-11-20T11:58:56.436Z,6.21
2022-11-20T12:01:31.706Z,6.39
2022-11-20T12:04:06.624Z,6.45
2022-11-20T12:06:36.711Z,6.49
2022-11-20T12:09:06.882Z,6.25
2022-11-20T12:11:41.137Z,5.91
2022-11-20T12:14:15.668Z,5.73
2022-11-20T12:16:44.970Z,5.65
2022-11-20T12:19:14.703Z,5.43
2022-11-20T12:21:51.088Z,5.31
2022-11-20T12:24:54.723Z,5.18
2022-11-20T12:27:45.465Z,4.94
2022-11-20T12:30:15.321Z,5.07
2022-11-20T12:33:06.829Z,5.08
2022-11-20T12:35:44.827Z,5.08
2022-11-20T12:38:48.363Z,4.94
2022-11-20T12:41:35.803Z,4.99
2022-11-20T12:44:30.632Z,4.81
2022-11-20T12:47:14.381Z,4.71
2022-11-20T12:49:47.748Z,4.71
2022-11-20T12:52:26.437Z,4.74
2022-11-20T12:55:22.695Z,4.78
2022-11-20T12:57:56.308Z,4.70
2022-11-20T13:00:25.328Z,4.71
2022-11-20T13:03:09.915Z,4.72
2022-11-20T13:05:48.228Z,4.80
2022-11-20T13:08:22.102Z,4.61
2022-11-20T13:10:54.595Z,4.49
2022-11-20T13:13:26.344Z,4.57
2022-11-20T13:15:57.879Z,4.50
2022-11-20T13:18:25.818Z,4.48
2022-11-20T13:20:55.059Z,4.65
2022-11-20T13:23:27.817Z,4.51
2022-11-20T13:26:16.355Z,4.48
2022-11-20T13:28:44.297Z,4.38
2022-11-20T13:31:28.178Z,4.20
2022-11-20T13:33:57.749Z,4.31
2022-11-20T13:36:29.085Z,4.13
2022-11-20T13:38:58.033Z,4.20
2022-11-20T13:41:32.139Z,4.21
2022-11-20T13:44:06.433Z,4.47
2022-11-20T13:46:42.038Z,4.72
2022-11-20T13:49:12.609Z,4.85
2022-11-20T13:51:46.378Z,4.61
2022-11-20T13:54:54.255Z,4.37
2022-11-20T13:57:46.675Z,4.20
2022-11-20T14:00:17.144Z,4.31
2022-11-20T14:02:45.950Z,4.08
2022-11-20T14:05:21.679Z,3.95
2022-11-20T14:07:52.703Z,3.88
2022-11-20T14:10:30.069Z,4.03
2022-11-20T14:13:00.029Z,3.92
2022-11-20T14:15:30.715Z,3.86
2022-11-20T14:17:58.946Z,3.81
2022-11-20T14:20:29.075Z,3.55
2022-11-20T14:22:58.304Z,3.42
2022-11-20T14:25:28.883Z,3.29
2022-11-20T14:27:58.283Z,3.19
2022-11-20T14:30:27.243Z,3.15
2022-11-20T14:32:57.156Z,3.11
2022-11-20T14:35:28.863Z,3.10
2022-11-20T14:37:58.630Z,3.19
2022-11-20T14:40:29.934Z,3.39
2022-11-20T14:42:58.263Z,3.36
2022-11-20T14:45:26.713Z,3.12
2022-11-20T14:47:56.195Z,3.19
2022-11-20T14:50:26.451Z,3.15
2022-11-20T14:52:56.177Z,2.89
2022-11-20T14:55:33.807Z,2.83
2022-11-20T14:58:03.807Z,2.72
2022-11-20T15:00:33.041Z,2.61
2022-11-20T15:03:01.067Z,2.55
2022-11-20T15:05:47.203Z,2.43
2022-11-20T15:08:15.972Z,2.39
2022-11-20T15:10:50.245Z,2.23
2022-11-20T15:13:22.613Z,2.18
2022-11-20T15:15:51.951Z,2.00
2022-11-20T15:18:21.232Z,2.13
2022-11-20T15:20:49.828Z,1.98
2022-11-20T15:23:19.945Z,2.06
2022-11-20T15:25:50.183Z,2.11
2022-11-20T15:28:23.942Z,2.08
2022-11-20T15:30:52.245Z,2.16
2022-11-20T15:33:20.403Z,2.14
2022-11-20T15:35:48.283Z,2.09
2022-11-20T15:38:16.337Z,2.03
2022-11-20T15:40:47.249Z,1.99
2022-11-20T15:43:16.740Z,2.02
2022-11-20T15:45:46.933Z,2.06
2022-11-20T15:48:17.648Z,2.09
2022-11-20T15:50:52.557Z,2.17
2022-11-20T15:53:20.458Z,2.13
2022-11-20T15:55:48.463Z,2.23
2022-11-20T15:58:18.713Z,2.24
2022-11-20T16:00:46.882Z,2.15
2022-11-20T16:03:15.271Z,2.29
2022-11-20T16:05:43.236Z,2.23
2022-11-20T16:08:11.959Z,2.03
2022-11-20T16:10:40.744Z,1.99
2022-11-20T16:13:31.763Z,1.89
2022-11-20T16:16:02.829Z,1.88
2022-11-20T16:18:30.760Z,1.91
2022-11-20T16:20:59.039Z,1.97
2022-11-20T16:23:27.014Z,2.24
2022-11-20T16:25:54.948Z,2.31
2022-11-20T16:28:22.840Z,2.37
2022-11-20T16:30:50.731Z,2.38
2022-11-20T16:33:20.008Z,2.39
2022-11-20T16:35:47.983Z,2.43
2022-11-20T16:38:15.854Z,2.30
2022-11-20T16:40:43.817Z,2.36
2022-11-20T16:43:13.100Z,2.33
2022-11-20T16:45:44.724Z,2.55
2022-11-20T16:48:17.129Z,2.35
2022-11-20T16:50:51.589Z,2.31
2022-11-20T16:53:19.928Z,2.39
2022-11-20T16:55:48.139Z,2.48
2022-11-20T16:58:16.454Z,2.42
2022-11-20T17:00:50.071Z,2.53
2022-11-20T17:03:19.510Z,2.41
2022-11-20T17:05:47.389Z,2.29
2022-11-20T17:08:16.684Z,2.65
2022-11-20T17:10:44.597Z,2.60
2022-11-20T17:13:12.496Z,2.61
2022-11-20T17:15:40.401Z,2.60
2022-11-20T17:18:08.234Z,2.58
2022-11-20T17:20:36.081Z,2.57
2022-11-20T17:23:03.959Z,2.52
2022-11-20T17:25:35.265Z,2.33
2022-11-20T17:28:03.140Z,2.68
2022-11-20T17:30:31.500Z,2.61
2022-11-20T17:32:59.325Z,2.60
2022-11-20T17:35:27.141Z,2.68
2022-11-20T17:37:55.013Z,2.72
2022-11-20T17:40:27.191Z,2.88
2022-11-20T17:42:56.861Z,2.73
2022-11-20T17:45:24.831Z,2.80
2022-11-20T17:47:52.666Z,3.10
2022-11-20T17:50:20.529Z,2.91
2022-11-20T17:52:48.425Z,2.72
2022-11-20T17:55:16.556Z,2.85
2022-11-20T17:57:56.750Z,2.80
2022-11-20T18:00:26.984Z,2.95
2022-11-20T18:02:55.240Z,2.93
2022-11-20T18:05:23.072Z,2.95
2022-11-20T18:07:53.807Z,2.87
2022-11-20T18:10:21.747Z,2.80
2022-11-20T18:12:49.605Z,2.89
2022-11-20T18:15:17.680Z,2.90
2022-11-20T18:17:46.862Z,3.09
2022-11-20T18:20:28.633Z,3.03
2022-11-20T18:22:58.499Z,3.02
2022-11-20T18:25:26.373Z,2.83
2022-11-20T18:27:54.206Z,3.08
2022-11-20T18:30:22.171Z,3.17
2022-11-20T18:32:51.383Z,3.13
2022-11-20T18:35:19.251Z,3.26
2022-11-20T18:37:47.060Z,3.60
2022-11-20T18:40:15.209Z,3.76
2022-11-20T18:43:00.371Z,3.90
2022-11-20T18:45:29.057Z,3.83
2022-11-20T18:47:58.271Z,3.87
2022-11-20T18:50:26.066Z,3.92
2022-11-20T18:52:53.988Z,4.00
2022-11-20T18:55:25.037Z,3.95
2022-11-20T18:57:54.007Z,3.84
2022-11-20T19:00:22.281Z,3.97
2022-11-20T19:02:50.113Z,3.94
2022-11-20T19:05:19.329Z,4.00
2022-11-20T19:07:47.200Z,3.92
2022-11-20T19:10:15.461Z,4.02
2022-11-20T19:12:43.285Z,4.03
2022-11-20T19:15:11.770Z,4.08
2022-11-20T19:17:39.739Z,4.15
2022-11-20T19:20:08.330Z,4.15
2022-11-20T19:22:37.549Z,4.23
2022-11-20T19:25:06.226Z,4.23
2022-11-20T19:27:34.081Z,4.26
2022-11-20T19:30:03.395Z,4.23
2022-11-20T19:32:32.482Z,4.22
2022-11-20T19:35:00.364Z,4.23
2022-11-20T19:37:28.224Z,4.27
2022-11-20T19:39:59.647Z,4.27
2022-11-20T19:42:27.518Z,4.24
2022-11-20T19:44:55.355Z,4.14
2022-11-20T19:47:35.378Z,4.15
2022-11-20T19:50:11.518Z,4.03
2022-11-20T19:52:39.425Z,4.09
2022-11-20T19:55:10.009Z,3.98
2022-11-20T19:57:37.920Z,3.90
2022-11-20T20:00:06.726Z,3.83
2022-11-20T20:02:34.588Z,3.89
2022-11-20T20:05:02.548Z,3.68
2022-11-20T20:07:30.405Z,3.64
2022-11-20T20:09:58.305Z,3.58
2022-11-20T20:12:27.509Z,3.50
2022-11-20T20:14:55.317Z,3.49
2022-11-20T20:17:23.127Z,3.54
2022-11-20T20:19:50.940Z,3.59
2022-11-20T20:22:18.820Z,3.61
2022-11-20T20:24:46.678Z,3.60
2022-11-20T20:27:14.517Z,3.57
2022-11-20T20:29:43.688Z,3.45
2022-11-20T20:32:11.521Z,3.40
2022-11-20T20:34:39.344Z,3.44
2022-11-20T20:37:07.144Z,3.27
2022-11-20T20:39:35.014Z,3.16
2022-11-20T20:42:02.847Z,3.17
2022-11-20T20:44:47.992Z,3.33
2022-11-20T20:47:17.200Z,3.12
2022-11-20T20:49:45.000Z,3.47
2022-11-20T20:52:12.817Z,3.36
2022-11-20T20:54:42.234Z,3.31
2022-11-20T20:57:10.053Z,3.22
2022-11-20T20:59:37.931Z,3.04
2022-11-20T21:02:05.831Z,2.87
2022-11-20T21:04:35.074Z,2.81
2022-11-20T21:07:03.186Z,2.71
2022-11-20T21:09:31.053Z,2.58
2022-11-20T21:11:58.928Z,2.49
2022-11-20T21:14:26.762Z,2.51
2022-11-20T21:16:54.646Z,2.48
2022-11-20T21:19:22.449Z,2.57
2022-11-20T21:21:59.553Z,2.53
2022-11-20T21:24:28.167Z,2.42
2022-11-20T21:26:56.168Z,2.38
2022-11-20T21:29:24.990Z,2.36
2022-11-20T21:31:54.056Z,2.34
2022-11-20T21:34:22.788Z,2.14
2022-11-20T21:36:52.639Z,2.00
2022-11-20T21:39:21.762Z,2.00
2022-11-20T21:41:49.643Z,1.87
2022-11-20T21:44:30.984Z,1.86
2022-11-20T21:46:59.612Z,1.92
2022-11-20T21:49:27.435Z,1.96
2022-11-20T21:51:57.038Z,1.84
2022-11-20T21:54:25.142Z,1.81
2022-11-20T21:56:53.201Z,1.67
2022-11-20T21:59:22.105Z,1.67
2022-11-20T22:01:50.006Z,1.63
2022-11-20T22:04:17.876Z,1.53
2022-11-20T22:06:45.700Z,1.45
2022-11-20T22:09:14.879Z,1.48
2022-11-20T22:11:42.799Z,1.48
2022-11-20T22:14:24.187Z,1.55
2022-11-20T22:16:53.466Z,1.57
2022-11-20T22:19:22.171Z,1.62
2022-11-20T22:21:50.683Z,1.66
2022-11-20T22:24:21.487Z,1.72
2022-11-20T22:26:49.596Z,1.59
2022-11-20T22:29:19.212Z,1.62
2022-11-20T22:31:47.801Z,1.70
2022-11-20T22:34:15.997Z,1.84
2022-11-20T22:36:44.680Z,1.57
2022-11-20T22:39:12.600Z,1.60
2022-11-20T22:41:41.857Z,1.88
2022-11-20T22:44:09.826Z,2.09
2022-11-20T22:46:38.353Z,2.16
2022-11-20T22:49:08.575Z,2.16
2022-11-20T22:51:38.204Z,2.23
2022-11-20T22:54:06.184Z,2.18
2022-11-20T22:56:34.638Z,2.13
2022-11-20T22:59:04.604Z,2.15
2022-11-20T23:01:33.916Z,2.04
2022-11-20T23:04:03.128Z,2.04
2022-11-20T23:06:34.221Z,1.88
2022-11-20T23:09:02.616Z,1.83
2022-11-20T23:11:31.771Z,1.66
2022-11-20T23:14:00.495Z,1.57
2022-11-20T23:16:30.479Z,1.57
2022-11-20T23:18:59.852Z,1.64
2022-11-20T23:21:28.199Z,1.59
2022-11-20T23:23:57.695Z,1.72
2022-11-20T23:26:27.166Z,1.54
2022-11-20T23:28:56.364Z,1.61
2022-11-20T23:31:24.975Z,1.60
2022-11-20T23:33:54.517Z,1.58
2022-11-20T23:36:22.516Z,1.57
2022-11-20T23:38:50.421Z,1.58
2022-11-20T23:41:18.531Z,1.58
2022-11-20T23:43:46.508Z,1.81
2022-11-20T23:46:16.772Z,1.84
2022-11-20T23:48:45.945Z,1.91
2022-11-20T23:51:15.650Z,1.78
2022-11-20T23:53:43.639Z,2.04
2022-11-20T23:56:12.100Z,2.02
2022-11-20T23:58:40.158Z,2.16
